createdAt,value
2023-04-16T00:00:13.023Z,8.1054
2023-04-16T00:01:15.368Z,7.9685
2023-04-16T00:02:17.824Z,8.0126
2023-04-16T00:03:20.245Z,8.0767
2023-04-16T00:04:22.389Z,8.1779
2023-04-16T00:05:24.685Z,8.2314
2023-04-16T00:06:27.030Z,8.1478
2023-04-16T00:07:29.349Z,8.1192
2023-04-16T00:08:31.694Z,8.5354
2023-04-16T00:09:34.019Z,8.6525
2023-04-16T00:10:36.337Z,8.5734
2023-04-16T00:11:38.662Z,8.2063
2023-04-16T00:12:40.992Z,8.3031
2023-04-16T00:13:43.326Z,8.5132
2023-04-16T00:14:45.663Z,8.4799
2023-04-16T00:15:47.982Z,8.6705
2023-04-16T00:16:50.420Z,8.7467
2023-04-16T00:17:52.773Z,8.7689
2023-04-16T00:18:54.992Z,8.8392
2023-04-16T00:19:57.315Z,9.0783
2023-04-16T00:20:59.688Z,8.9460
2023-04-16T00:22:01.966Z,8.6401
2023-04-16T00:23:04.288Z,8.7525
2023-04-16T00:24:06.675Z,8.7611
2023-04-16T00:25:08.976Z,8.6303
2023-04-16T00:26:11.344Z,8.5707
2023-04-16T00:27:13.626Z,8.4148
2023-04-16T00:28:15.970Z,8.7243
2023-04-16T00:29:18.279Z,8.9938
2023-04-16T00:30:20.616Z,9.0645
2023-04-16T00:31:23.063Z,8.9119
2023-04-16T00:32:25.307Z,8.8398
2023-04-16T00:33:27.708Z,8.7052
2023-04-16T00:34:29.959Z,8.7736
2023-04-16T00:35:32.332Z,9.0095
2023-04-16T00:36:34.591Z,8.9462
2023-04-16T00:37:36.953Z,8.9982
2023-04-16T00:38:39.293Z,9.0881
2023-04-16T00:39:41.580Z,8.8930
2023-04-16T00:40:43.925Z,8.5389
2023-04-16T00:41:46.263Z,8.1034
2023-04-16T00:42:48.628Z,8.2347
2023-04-16T00:43:50.936Z,8.5475
2023-04-16T00:44:53.260Z,8.6974
2023-04-16T00:45:55.658Z,8.7178
2023-04-16T00:46:57.934Z,8.6389
2023-04-16T00:48:00.669Z,8.6785
2023-04-16T00:49:02.624Z,8.8764
2023-04-16T00:50:04.950Z,9.0649
2023-04-16T00:51:07.278Z,8.9733
2023-04-16T00:52:09.638Z,8.9065
2023-04-16T00:53:11.937Z,8.6594
2023-04-16T00:54:14.254Z,8.9259
2023-04-16T00:55:16.602Z,9.0546
2023-04-16T00:56:18.933Z,8.9951
2023-04-16T00:57:21.269Z,9.2551
2023-04-16T00:58:23.653Z,9.2483
2023-04-16T00:59:25.900Z,9.3486
2023-04-16T01:00:28.266Z,9.0253
2023-04-16T01:01:30.638Z,8.8322
2023-04-16T01:02:32.991Z,8.7373
2023-04-16T01:03:35.471Z,8.5978
2023-04-16T01:04:37.636Z,8.2017
2023-04-16T01:05:39.932Z,8.0237
2023-04-16T01:06:42.298Z,8.1855
2023-04-16T01:07:44.584Z,8.4811
2023-04-16T01:08:46.894Z,8.4579
2023-04-16T01:09:49.248Z,8.4002
2023-04-16T01:10:51.595Z,8.2605
2023-04-16T01:11:53.891Z,7.8736
2023-04-16T01:12:56.234Z,7.8134
2023-04-16T01:13:58.606Z,8.0494
2023-04-16T01:15:00.903Z,8.2755
2023-04-16T01:16:03.246Z,8.3698
2023-04-16T01:17:05.630Z,8.3435
2023-04-16T01:18:07.917Z,8.0859
2023-04-16T01:19:10.353Z,7.9806
2023-04-16T01:20:12.534Z,8.1893
2023-04-16T01:21:14.928Z,8.0028
2023-04-16T01:22:17.211Z,7.8885
2023-04-16T01:23:19.672Z,7.8512
2023-04-16T01:24:21.872Z,7.7441
2023-04-16T01:25:24.227Z,7.9321
2023-04-16T01:26:26.602Z,8.1991
2023-04-16T01:27:28.879Z,7.9327
2023-04-16T01:28:31.228Z,7.8017
2023-04-16T01:29:33.638Z,7.9732
2023-04-16T01:30:35.899Z,8.1385
2023-04-16T01:31:38.340Z,8.1443
2023-04-16T01:32:40.600Z,7.9746
2023-04-16T01:33:42.858Z,7.6828
2023-04-16T01:34:45.254Z,7.6796
2023-04-16T01:35:47.613Z,7.7990
2023-04-16T01:36:49.868Z,7.7934
2023-04-16T01:37:52.213Z,8.0399
2023-04-16T01:38:54.558Z,8.1952
2023-04-16T01:39:56.863Z,8.2427
2023-04-16T01:40:59.231Z,7.9378
2023-04-16T01:42:01.547Z,7.8951
2023-04-16T01:43:03.891Z,7.8577
2023-04-16T01:44:06.230Z,7.9243
2023-04-16T01:45:08.519Z,8.1303
2023-04-16T01:46:10.895Z,8.2406
2023-04-16T01:47:13.235Z,8.2320
2023-04-16T01:48:15.508Z,8.3172
2023-04-16T01:49:17.897Z,8.5292
2023-04-16T01:50:20.201Z,8.4908
2023-04-16T01:51:22.467Z,8.1020
2023-04-16T01:52:24.815Z,8.0892
2023-04-16T01:53:27.178Z,8.2445
2023-04-16T01:54:29.466Z,8.4830
2023-04-16T01:55:31.828Z,8.3858
2023-04-16T01:56:34.102Z,8.2353
2023-04-16T01:57:36.470Z,8.1393
2023-04-16T01:58:38.944Z,8.0358
2023-04-16T01:59:41.153Z,8.2573
2023-04-16T02:00:43.492Z,8.2032
2023-04-16T02:01:45.848Z,8.2447
2023-04-16T02:02:48.288Z,8.4193
2023-04-16T02:03:50.587Z,8.2487
2023-04-16T02:04:52.780Z,8.0239
2023-04-16T02:05:55.081Z,8.1969
2023-04-16T02:06:57.442Z,8.5187
2023-04-16T02:07:59.800Z,8.6909
2023-04-16T02:09:02.162Z,8.5982
2023-04-16T02:10:04.426Z,8.6212
2023-04-16T02:11:06.800Z,8.6707
2023-04-16T02:12:09.081Z,8.7050
2023-04-16T02:13:11.414Z,8.5091
2023-04-16T02:14:13.771Z,8.4750
2023-04-16T02:15:16.033Z,8.5200
2023-04-16T02:16:18.446Z,8.5428
2023-04-16T02:17:20.809Z,8.5212
2023-04-16T02:18:23.061Z,8.7360
2023-04-16T02:19:25.441Z,8.6886
2023-04-16T02:20:27.790Z,8.4561
2023-04-16T02:21:30.118Z,8.5500
2023-04-16T02:22:32.385Z,8.9825
2023-04-16T02:23:34.748Z,9.1929
2023-04-16T02:24:37.137Z,9.3219
2023-04-16T02:25:39.377Z,9.2155
2023-04-16T02:26:41.705Z,8.9807
2023-04-16T02:27:44.037Z,8.8938
2023-04-16T02:28:46.416Z,8.4374
2023-04-16T02:29:48.723Z,8.7387
2023-04-16T02:30:51.058Z,9.0805
2023-04-16T02:31:53.475Z,8.6728
2023-04-16T02:32:55.823Z,8.7197
2023-04-16T02:33:58.064Z,9.1452
2023-04-16T02:35:00.387Z,9.3213
2023-04-16T02:36:02.734Z,9.4003
2023-04-16T02:37:05.062Z,9.0875
2023-04-16T02:38:07.415Z,9.0068
2023-04-16T02:39:09.879Z,8.8837
2023-04-16T02:40:12.099Z,8.9222
2023-04-16T02:41:14.596Z,9.2555
2023-04-16T02:42:16.891Z,8.9605
2023-04-16T02:43:19.137Z,8.4218
2023-04-16T02:44:21.466Z,8.8351
2023-04-16T02:45:23.845Z,9.2414
2023-04-16T02:46:26.121Z,9.3383
2023-04-16T02:47:28.495Z,9.0801
2023-04-16T02:48:30.786Z,9.2611
2023-04-16T02:49:33.166Z,9.4850
2023-04-16T02:50:35.435Z,9.3176
2023-04-16T02:51:37.780Z,8.3973
2023-04-16T02:52:40.239Z,8.1556
2023-04-16T02:53:42.462Z,8.4656
2023-04-16T02:54:44.764Z,8.8496
2023-04-16T02:55:47.230Z,8.9840
2023-04-16T02:56:49.393Z,8.8911
2023-04-16T02:57:51.775Z,8.8837
2023-04-16T02:58:54.051Z,9.1181
2023-04-16T02:59:56.418Z,9.2083
2023-04-16T03:00:58.763Z,8.5346
2023-04-16T03:02:01.121Z,8.7461
2023-04-16T03:03:03.500Z,9.0433
2023-04-16T03:04:05.777Z,8.7809
2023-04-16T03:05:08.035Z,8.9378
2023-04-16T03:06:10.365Z,9.3732
2023-04-16T03:07:12.730Z,9.3662
2023-04-16T03:08:15.117Z,9.1113
2023-04-16T03:09:17.394Z,9.0479
2023-04-16T03:10:19.688Z,9.1682
2023-04-16T03:11:22.067Z,9.1011
2023-04-16T03:12:24.428Z,9.2075
2023-04-16T03:13:26.778Z,9.1867
2023-04-16T03:14:29.011Z,9.5168
2023-04-16T03:15:31.518Z,9.5649
2023-04-16T03:16:33.697Z,9.2120
2023-04-16T03:17:36.041Z,9.1477
2023-04-16T03:18:38.410Z,9.3268
2023-04-16T03:19:40.836Z,9.5721
2023-04-16T03:20:42.966Z,9.5406
2023-04-16T03:21:45.322Z,9.5756
2023-04-16T03:22:47.664Z,9.5669
2023-04-16T03:23:49.986Z,9.1604
2023-04-16T03:24:52.337Z,9.1526
2023-04-16T03:25:54.739Z,9.2861
2023-04-16T03:26:56.990Z,9.1600
2023-04-16T03:27:59.292Z,8.6235
2023-04-16T03:29:01.688Z,8.5563
2023-04-16T03:30:03.950Z,8.5831
2023-04-16T03:31:06.366Z,8.4321
2023-04-16T03:32:08.660Z,8.6163
2023-04-16T03:33:10.998Z,8.8509
2023-04-16T03:34:13.347Z,8.7163
2023-04-16T03:35:15.579Z,8.9080
2023-04-16T03:36:17.977Z,8.9347
2023-04-16T03:37:20.330Z,8.6077
2023-04-16T03:38:22.642Z,8.4809
2023-04-16T03:39:25.044Z,8.6796
2023-04-16T03:40:27.341Z,8.8556
2023-04-16T03:41:29.662Z,8.9162
2023-04-16T03:42:31.905Z,8.7437
2023-04-16T03:43:34.321Z,8.6418
2023-04-16T03:44:36.616Z,8.6810
2023-04-16T03:45:38.903Z,8.7241
2023-04-16T03:46:41.294Z,8.8133
2023-04-16T03:47:43.666Z,8.4236
2023-04-16T03:48:45.866Z,8.4004
2023-04-16T03:49:48.211Z,8.2227
2023-04-16T03:50:50.550Z,8.2053
2023-04-16T03:51:52.872Z,8.4933
2023-04-16T03:52:55.160Z,8.7527
2023-04-16T03:53:57.524Z,8.8879
2023-04-16T03:54:59.839Z,8.5233
2023-04-16T03:56:02.155Z,8.2692
2023-04-16T03:57:04.513Z,7.9496
2023-04-16T03:58:06.843Z,7.9709
2023-04-16T03:59:09.387Z,8.1839
2023-04-16T04:00:11.544Z,8.3112
2023-04-16T04:01:13.802Z,7.9029
2023-04-16T04:02:16.217Z,7.9253
2023-04-16T04:03:18.764Z,8.2400
2023-04-16T04:04:20.891Z,8.3001
2023-04-16T04:05:23.186Z,8.5052
2023-04-16T04:06:25.522Z,8.5586
2023-04-16T04:07:27.861Z,8.7570
2023-04-16T04:08:30.124Z,8.4119
2023-04-16T04:09:32.528Z,8.2386
2023-04-16T04:10:34.854Z,8.3300
2023-04-16T04:11:37.780Z,8.3786
2023-04-16T04:12:39.452Z,8.6227
2023-04-16T04:13:41.810Z,8.6845
2023-04-16T04:14:44.100Z,8.5588
2023-04-16T04:15:46.452Z,8.3828
2023-04-16T04:16:48.825Z,8.6763
2023-04-16T04:17:51.120Z,8.5810
2023-04-16T04:18:53.436Z,8.6377
2023-04-16T04:20:58.170Z,8.4322
2023-04-16T04:22:00.471Z,8.4920
2023-04-16T04:23:02.920Z,8.5284
2023-04-16T04:24:05.171Z,8.5066
2023-04-16T04:25:07.434Z,8.5222
2023-04-16T04:26:09.830Z,8.6050
2023-04-16T04:27:12.141Z,8.2250
2023-04-16T04:28:14.544Z,8.3376
2023-04-16T04:29:16.748Z,8.5052
2023-04-16T04:30:19.104Z,8.6231
2023-04-16T04:31:21.459Z,8.5645
2023-04-16T04:32:23.755Z,8.4994
2023-04-16T04:33:26.043Z,7.9050
2023-04-16T04:34:28.373Z,8.1418
2023-04-16T04:35:30.762Z,8.1919
2023-04-16T04:36:33.062Z,8.4945
2023-04-16T04:37:35.371Z,8.8036
2023-04-16T04:38:37.758Z,8.9860
2023-04-16T04:39:40.064Z,8.9630
2023-04-16T04:40:42.378Z,8.9320
2023-04-16T04:41:44.751Z,8.4376
2023-04-16T04:42:46.997Z,8.2657
2023-04-16T04:43:49.360Z,8.2059
2023-04-16T04:44:51.678Z,7.7729
2023-04-16T04:45:54.096Z,7.6484
2023-04-16T04:46:56.390Z,7.7731
2023-04-16T04:47:58.740Z,7.9999
2023-04-16T04:49:01.087Z,8.3109
2023-04-16T04:50:03.453Z,8.5200
2023-04-16T04:51:05.866Z,8.6892
2023-04-16T04:52:08.068Z,8.8262
2023-04-16T04:53:10.345Z,8.4493
2023-04-16T04:54:12.700Z,8.3355
2023-04-16T04:55:15.053Z,8.4902
2023-04-16T04:56:17.384Z,8.7005
2023-04-16T04:57:19.729Z,8.7167
2023-04-16T04:58:22.223Z,8.7334
2023-04-16T04:59:24.371Z,8.8039
2023-04-16T05:00:26.721Z,8.8217
2023-04-16T05:01:29.053Z,8.7270
2023-04-16T05:02:31.508Z,8.7963
2023-04-16T05:03:33.833Z,8.7467
2023-04-16T05:04:36.135Z,8.7800
2023-04-16T05:05:38.367Z,8.8484
2023-04-16T05:06:40.733Z,8.6886
2023-04-16T05:07:43.060Z,8.9263
2023-04-16T05:08:45.353Z,8.9616
2023-04-16T05:09:47.681Z,8.6412
2023-04-16T05:10:50.065Z,8.0151
2023-04-16T05:11:52.357Z,7.8384
2023-04-16T05:12:54.702Z,8.1496
2023-04-16T05:13:56.988Z,8.4292
2023-04-16T05:14:59.350Z,8.1375
2023-04-16T05:16:01.786Z,8.1131
2023-04-16T05:17:04.157Z,8.0416
2023-04-16T05:18:06.431Z,8.1392
2023-04-16T05:19:09.025Z,8.1997
2023-04-16T05:20:11.026Z,7.9761
2023-04-16T05:21:13.401Z,8.3826
2023-04-16T05:22:15.699Z,8.6206
2023-04-16T05:23:17.996Z,8.6155
2023-04-16T05:24:20.369Z,8.6794
2023-04-16T05:25:22.741Z,8.7962
2023-04-16T05:26:25.041Z,8.6097
2023-04-16T05:27:27.336Z,8.3793
2023-04-16T05:28:29.662Z,8.5171
2023-04-16T05:29:31.992Z,8.3844
2023-04-16T05:30:34.357Z,8.0093
2023-04-16T05:31:36.712Z,7.6466
2023-04-16T05:32:39.024Z,7.8586
2023-04-16T05:33:41.380Z,7.5884
2023-04-16T05:34:43.641Z,7.1807
2023-04-16T05:35:45.954Z,7.2501
2023-04-16T05:36:48.334Z,7.0014
2023-04-16T05:37:50.647Z,7.2257
2023-04-16T05:38:53.002Z,7.6868
2023-04-16T05:39:55.316Z,7.6928
2023-04-16T05:40:57.638Z,7.5856
2023-04-16T05:41:59.994Z,7.8325
2023-04-16T05:43:02.305Z,7.8746
2023-04-16T05:44:04.729Z,7.8033
2023-04-16T05:45:06.988Z,7.8220
2023-04-16T05:46:09.333Z,7.7824
2023-04-16T05:47:11.689Z,7.8304
2023-04-16T05:48:13.964Z,7.7770
2023-04-16T05:49:16.318Z,7.9584
2023-04-16T05:50:18.641Z,7.8840
2023-04-16T05:51:20.973Z,7.8865
2023-04-16T05:52:23.348Z,8.0668
2023-04-16T05:53:25.688Z,8.1634
2023-04-16T05:54:27.976Z,7.8822
2023-04-16T05:55:30.319Z,7.7041
2023-04-16T05:56:32.638Z,7.4605
2023-04-16T05:57:34.981Z,7.5630
2023-04-16T05:58:37.319Z,7.9048
2023-04-16T05:59:39.673Z,7.7407
2023-04-16T06:00:41.997Z,7.4102
2023-04-16T06:01:44.301Z,7.5305
2023-04-16T06:02:46.824Z,7.1292
2023-04-16T06:03:49.132Z,7.0539
2023-04-16T06:04:51.319Z,7.2812
2023-04-16T06:05:53.687Z,7.6166
2023-04-16T06:06:56.002Z,7.3604
2023-04-16T06:07:58.360Z,7.5502
2023-04-16T06:09:00.637Z,7.3847
2023-04-16T06:10:03.011Z,7.3307
2023-04-16T06:11:05.379Z,7.4773
2023-04-16T06:12:07.659Z,7.2501
2023-04-16T06:13:09.965Z,7.2538
2023-04-16T06:14:12.329Z,7.5131
2023-04-16T06:15:14.641Z,7.5182
2023-04-16T06:16:17.012Z,7.5648
2023-04-16T06:17:19.310Z,7.6141
2023-04-16T06:18:21.654Z,7.3592
2023-04-16T06:19:23.989Z,7.3243
2023-04-16T06:20:26.337Z,7.4469
2023-04-16T06:21:28.694Z,7.2097
2023-04-16T06:22:31.001Z,7.3325
2023-04-16T06:23:33.568Z,7.2627
2023-04-16T06:24:35.655Z,7.2996
2023-04-16T06:25:37.974Z,7.4611
2023-04-16T06:26:40.329Z,7.4638
2023-04-16T06:27:42.661Z,7.5116
2023-04-16T06:28:44.977Z,7.5654
2023-04-16T06:29:47.324Z,7.7873
2023-04-16T06:30:49.630Z,8.0689
2023-04-16T06:31:52.036Z,8.2394
2023-04-16T06:32:54.352Z,8.2443
2023-04-16T06:33:56.633Z,8.0230
2023-04-16T06:34:58.977Z,7.7669
2023-04-16T06:36:01.315Z,7.5539
2023-04-16T06:37:03.615Z,7.3960
2023-04-16T06:38:05.948Z,7.1092
2023-04-16T06:39:08.685Z,6.5080
2023-04-16T06:40:10.615Z,6.8855
2023-04-16T06:41:12.956Z,6.9852
2023-04-16T06:42:15.272Z,6.9131
2023-04-16T06:43:17.605Z,6.6341
2023-04-16T06:44:19.984Z,6.3905
2023-04-16T06:45:22.355Z,6.4852
2023-04-16T06:46:24.672Z,6.6842
2023-04-16T06:47:27.030Z,6.9975
2023-04-16T06:48:29.322Z,6.9620
2023-04-16T06:49:31.660Z,6.8132
2023-04-16T06:50:33.998Z,6.9488
2023-04-16T06:51:36.342Z,6.8282
2023-04-16T06:52:38.665Z,6.8019
2023-04-16T06:53:40.981Z,6.7522
2023-04-16T06:54:43.353Z,6.7087
2023-04-16T06:55:45.648Z,6.7621
2023-04-16T06:56:47.998Z,6.6276
2023-04-16T06:57:50.310Z,6.4688
2023-04-16T06:58:52.657Z,6.5698
2023-04-16T06:59:54.976Z,6.6699
2023-04-16T07:00:57.323Z,6.4542
2023-04-16T07:01:59.687Z,6.3735
2023-04-16T07:03:02.296Z,6.4612
2023-04-16T07:04:04.504Z,6.4620
2023-04-16T07:05:06.632Z,6.4522
2023-04-16T07:06:08.970Z,6.5242
2023-04-16T07:07:11.337Z,6.5158
2023-04-16T07:08:13.610Z,6.4388
2023-04-16T07:09:15.952Z,6.4304
2023-04-16T07:10:18.292Z,6.3236
2023-04-16T07:11:20.609Z,6.1613
2023-04-16T07:12:23.152Z,6.2942
2023-04-16T07:13:25.275Z,6.2042
2023-04-16T07:14:27.615Z,6.0645
2023-04-16T07:15:29.954Z,6.0888
2023-04-16T07:16:32.285Z,6.1073
2023-04-16T07:17:34.661Z,6.2217
2023-04-16T07:18:36.968Z,6.1504
2023-04-16T07:19:39.290Z,6.3205
2023-04-16T07:20:41.624Z,6.3696
2023-04-16T07:21:43.924Z,6.1978
2023-04-16T07:22:46.270Z,6.2079
2023-04-16T07:23:48.594Z,6.2126
2023-04-16T07:24:50.978Z,6.3075
2023-04-16T07:25:53.263Z,6.4176
2023-04-16T07:26:55.600Z,6.6306
2023-04-16T07:27:57.919Z,6.7414
2023-04-16T07:29:00.250Z,6.7691
2023-04-16T07:30:02.612Z,6.8769
2023-04-16T07:31:04.921Z,7.1986
2023-04-16T07:32:07.307Z,7.2836
2023-04-16T07:33:09.604Z,7.3685
2023-04-16T07:34:11.932Z,7.6273
2023-04-16T07:35:14.278Z,7.6667
2023-04-16T07:36:16.573Z,7.7957
2023-04-16T07:37:18.914Z,7.8623
2023-04-16T07:38:21.245Z,7.7947
2023-04-16T07:39:23.577Z,7.8839
2023-04-16T07:40:25.917Z,8.0401
2023-04-16T07:41:28.257Z,8.2659
2023-04-16T07:42:30.579Z,7.8998
2023-04-16T07:43:32.904Z,7.7283
2023-04-16T07:44:35.246Z,7.6131
2023-04-16T07:45:37.666Z,7.5079
2023-04-16T07:46:46.893Z,7.3194
2023-04-16T07:47:42.305Z,7.4670
2023-04-16T07:48:44.568Z,7.4229
2023-04-16T07:49:46.922Z,7.5673
2023-04-16T07:50:49.234Z,7.6332
2023-04-16T07:51:51.578Z,7.3617
2023-04-16T07:52:53.897Z,7.3892
2023-04-16T07:53:56.216Z,7.2703
2023-04-16T07:54:58.569Z,7.1146
2023-04-16T07:56:00.908Z,7.4034
2023-04-16T07:57:03.218Z,7.4202
2023-04-16T07:58:05.613Z,7.6026
2023-04-16T07:59:21.009Z,7.4311
2023-04-16T08:00:10.225Z,7.0961
2023-04-16T08:01:12.588Z,6.9112
2023-04-16T08:02:14.975Z,7.0400
2023-04-16T08:03:17.338Z,7.1731
2023-04-16T08:04:19.733Z,7.1856
2023-04-16T08:05:21.980Z,7.5046
2023-04-16T08:06:24.199Z,7.5786
2023-04-16T08:07:26.571Z,7.8243
2023-04-16T08:08:28.876Z,7.7686
2023-04-16T08:09:31.198Z,7.7602
2023-04-16T08:10:33.532Z,7.7435
2023-04-16T08:11:35.859Z,7.6509
2023-04-16T08:12:38.207Z,7.7084
2023-04-16T08:13:40.557Z,7.7220
2023-04-16T08:14:42.869Z,8.0015
2023-04-16T08:15:45.217Z,8.0627
2023-04-16T08:16:47.551Z,7.9157
2023-04-16T08:17:49.883Z,7.8853
2023-04-16T08:18:52.252Z,8.1433
2023-04-16T08:19:54.679Z,8.1603
2023-04-16T08:20:56.844Z,7.8721
2023-04-16T08:21:59.189Z,7.8705
2023-04-16T08:23:01.546Z,7.7787
2023-04-16T08:24:03.865Z,7.7183
2023-04-16T08:25:06.214Z,7.4580
2023-04-16T08:26:08.510Z,7.3674
2023-04-16T08:27:18.678Z,7.6998
2023-04-16T08:28:13.201Z,7.5651
2023-04-16T08:29:15.534Z,7.7756
2023-04-16T08:30:17.872Z,7.6998
2023-04-16T08:31:20.227Z,7.2805
2023-04-16T08:32:22.536Z,7.5312
2023-04-16T08:33:24.857Z,7.6809
2023-04-16T08:34:27.187Z,7.6612
2023-04-16T08:35:29.539Z,7.3187
2023-04-16T08:36:31.843Z,7.0731
2023-04-16T08:37:34.175Z,7.2411
2023-04-16T08:38:36.503Z,7.5369
2023-04-16T08:39:38.879Z,7.6499
2023-04-16T08:40:41.178Z,7.9003
2023-04-16T08:41:43.517Z,7.9991
2023-04-16T08:42:45.836Z,8.0948
2023-04-16T08:43:48.174Z,8.1932
2023-04-16T08:44:50.512Z,8.0268
2023-04-16T08:45:52.858Z,8.0935
2023-04-16T08:46:55.242Z,7.8349
2023-04-16T08:47:57.594Z,7.7593
2023-04-16T08:48:59.848Z,7.5346
2023-04-16T08:50:02.189Z,7.5024
2023-04-16T08:51:04.485Z,7.5428
2023-04-16T08:52:06.842Z,7.6030
2023-04-16T08:53:11.109Z,7.3510
2023-04-16T08:54:11.486Z,7.3517
2023-04-16T08:55:13.822Z,7.4048
2023-04-16T08:56:16.152Z,7.5053
2023-04-16T08:57:18.494Z,7.4272
2023-04-16T08:58:20.803Z,7.4991
2023-04-16T08:59:23.135Z,7.6145
2023-04-16T09:00:25.501Z,7.6782
2023-04-16T09:01:27.873Z,7.7860
2023-04-16T09:02:30.280Z,7.5237
2023-04-16T09:03:34.924Z,7.6338
2023-04-16T09:04:34.844Z,7.6692
2023-04-16T09:05:37.147Z,7.8390
2023-04-16T09:06:39.476Z,7.8195
2023-04-16T09:07:41.835Z,7.8238
2023-04-16T09:08:44.142Z,7.7035
2023-04-16T09:09:46.466Z,7.9085
2023-04-16T09:10:48.837Z,8.1112
2023-04-16T09:11:51.124Z,7.9475
2023-04-16T09:12:53.465Z,8.0566
2023-04-16T09:13:55.806Z,8.0169
2023-04-16T09:14:58.146Z,7.8682
2023-04-16T09:16:00.517Z,8.0802
2023-04-16T09:17:02.806Z,8.0652
2023-04-16T09:18:05.139Z,8.1157
2023-04-16T09:19:07.557Z,8.2316
2023-04-16T09:20:09.799Z,8.2254
2023-04-16T09:21:12.155Z,8.2698
2023-04-16T09:22:14.476Z,8.5000
2023-04-16T09:23:16.794Z,8.5175
2023-04-16T09:24:19.130Z,8.1543
2023-04-16T09:25:21.466Z,8.1550
2023-04-16T09:26:23.811Z,8.2396
2023-04-16T09:27:26.234Z,8.4058
2023-04-16T09:28:28.472Z,8.4902
2023-04-16T09:29:30.819Z,8.7227
2023-04-16T09:30:33.130Z,8.8217
2023-04-16T09:31:35.496Z,8.9452
2023-04-16T09:32:37.885Z,9.1824
2023-04-16T09:33:40.154Z,9.3305
2023-04-16T09:34:42.502Z,9.3808
2023-04-16T09:35:44.820Z,9.2925
2023-04-16T09:36:47.149Z,9.1939
2023-04-16T09:37:49.507Z,9.4057
2023-04-16T09:38:51.835Z,9.2718
2023-04-16T09:39:54.154Z,9.1547
2023-04-16T09:40:56.634Z,8.9275
2023-04-16T09:41:58.802Z,9.1111
2023-04-16T09:43:01.157Z,9.1619
2023-04-16T09:44:03.487Z,9.0557
2023-04-16T09:45:06.291Z,8.8991
2023-04-16T09:46:08.691Z,8.6025
2023-04-16T09:47:10.492Z,8.7173
2023-04-16T09:48:12.807Z,8.9324
2023-04-16T09:49:15.162Z,8.9897
2023-04-16T09:50:18.675Z,9.0555
2023-04-16T09:51:19.818Z,9.1501
2023-04-16T09:52:22.164Z,9.2545
2023-04-16T09:53:24.490Z,9.4018
2023-04-16T09:54:26.818Z,9.5552
2023-04-16T09:55:29.163Z,9.2913
2023-04-16T09:56:31.477Z,9.4470
2023-04-16T09:57:33.812Z,9.5702
2023-04-16T09:58:36.212Z,9.7910
2023-04-16T09:59:38.501Z,9.9163
2023-04-16T10:00:42.250Z,9.6974
2023-04-16T10:01:43.270Z,9.5664
2023-04-16T10:02:45.704Z,9.7048
2023-04-16T10:03:47.909Z,9.8764
2023-04-16T10:04:50.479Z,10.0449
2023-04-16T10:05:52.637Z,9.8942
2023-04-16T10:06:54.833Z,9.5024
2023-04-16T10:07:57.160Z,9.5456
2023-04-16T10:08:59.493Z,9.6633
2023-04-16T10:10:01.904Z,9.7534
2023-04-16T10:11:04.155Z,9.9654
2023-04-16T10:12:06.505Z,10.1684
2023-04-16T10:13:08.824Z,10.3358
2023-04-16T10:14:11.160Z,10.0714
2023-04-16T10:15:13.479Z,10.2840
2023-04-16T10:16:15.853Z,10.3130
2023-04-16T10:17:18.146Z,10.0500
2023-04-16T10:18:20.512Z,9.8845
2023-04-16T10:19:22.821Z,9.8880
2023-04-16T10:20:25.152Z,10.2400
2023-04-16T10:21:27.511Z,10.2150
2023-04-16T10:22:29.800Z,9.6550
2023-04-16T10:23:32.136Z,9.8584
2023-04-16T10:24:34.477Z,10.2904
2023-04-16T10:25:36.795Z,10.4294
2023-04-16T10:26:39.130Z,10.5929
2023-04-16T10:27:41.459Z,10.6313
2023-04-16T10:28:43.828Z,10.6819
2023-04-16T10:29:46.174Z,10.7700
2023-04-16T10:30:48.475Z,10.7168
2023-04-16T10:31:50.784Z,10.8803
2023-04-16T10:32:53.145Z,10.9592
2023-04-16T10:33:55.450Z,10.7868
2023-04-16T10:34:57.799Z,10.8676
2023-04-16T10:36:07.426Z,10.9261
2023-04-16T10:37:02.448Z,10.9748
2023-04-16T10:38:04.773Z,10.8618
2023-04-16T10:39:07.105Z,11.0290
2023-04-16T10:40:09.470Z,11.1878
2023-04-16T10:41:11.773Z,11.3160
2023-04-16T10:42:14.104Z,11.0678
2023-04-16T10:43:16.427Z,11.1052
2023-04-16T10:44:18.769Z,11.1422
2023-04-16T10:45:21.136Z,10.8269
2023-04-16T10:46:23.481Z,10.9273
2023-04-16T10:47:25.807Z,11.0300
2023-04-16T10:48:35.598Z,10.6548
2023-04-16T10:49:30.434Z,10.6437
2023-04-16T10:50:32.780Z,10.8632
2023-04-16T10:51:35.183Z,10.9674
2023-04-16T10:52:37.553Z,11.1305
2023-04-16T10:53:39.860Z,11.2628
2023-04-16T10:54:42.192Z,11.4006
2023-04-16T10:55:44.511Z,11.4328
2023-04-16T10:56:46.845Z,11.1442
2023-04-16T10:57:49.186Z,10.8092
2023-04-16T10:58:51.511Z,10.8799
2023-04-16T10:59:53.843Z,10.8655
2023-04-16T11:00:56.194Z,11.0978
2023-04-16T11:01:58.611Z,11.2605
2023-04-16T11:03:00.951Z,10.9462
2023-04-16T11:04:03.339Z,10.8345
2023-04-16T11:05:05.516Z,10.6924
2023-04-16T11:06:07.853Z,10.6428
2023-04-16T11:07:10.191Z,10.8148
2023-04-16T11:08:12.513Z,11.1808
2023-04-16T11:09:14.861Z,11.3084
2023-04-16T11:10:17.206Z,11.1116
2023-04-16T11:11:19.535Z,10.3193
2023-04-16T11:12:21.849Z,10.1552
2023-04-16T11:13:24.181Z,9.9757
2023-04-16T11:14:26.506Z,10.6383
2023-04-16T11:15:28.854Z,10.6151
2023-04-16T11:16:31.236Z,11.0459
2023-04-16T11:17:33.594Z,11.2938
2023-04-16T11:18:35.860Z,11.4649
2023-04-16T11:19:38.175Z,11.4181
2023-04-16T11:20:40.530Z,11.4513
2023-04-16T11:21:42.857Z,11.5760
2023-04-16T11:22:45.171Z,11.2720
2023-04-16T11:23:47.501Z,10.8928
2023-04-16T11:24:49.842Z,10.5379
2023-04-16T11:25:52.190Z,10.7425
2023-04-16T11:26:54.510Z,10.4440
2023-04-16T11:27:56.838Z,10.0416
2023-04-16T11:28:59.177Z,9.9443
2023-04-16T11:30:01.545Z,10.0542
2023-04-16T11:31:03.857Z,10.3976
2023-04-16T11:32:06.177Z,10.5786
2023-04-16T11:33:08.525Z,10.6063
2023-04-16T11:34:10.855Z,9.8163
2023-04-16T11:35:13.179Z,9.9929
2023-04-16T11:36:15.526Z,10.4475
2023-04-16T11:37:17.849Z,10.5783
2023-04-16T11:38:20.189Z,10.4800
2023-04-16T11:39:22.521Z,10.3245
2023-04-16T11:40:24.861Z,10.3035
2023-04-16T11:41:27.184Z,10.6613
2023-04-16T11:42:29.568Z,10.7975
2023-04-16T11:43:31.868Z,11.0181
2023-04-16T11:44:34.196Z,10.8657
2023-04-16T11:45:36.526Z,10.7610
2023-04-16T11:46:38.895Z,10.8838
2023-04-16T11:47:41.320Z,10.6884
2023-04-16T11:48:43.553Z,10.5209
2023-04-16T11:49:45.856Z,10.8821
2023-04-16T11:50:48.201Z,10.8203
2023-04-16T11:51:50.523Z,10.7069
2023-04-16T11:52:52.861Z,10.9475
2023-04-16T11:53:55.213Z,11.1243
2023-04-16T11:54:57.526Z,11.0134
2023-04-16T11:55:59.889Z,11.1301
2023-04-16T11:57:02.201Z,11.1011
2023-04-16T11:58:04.536Z,10.8713
2023-04-16T11:59:06.961Z,11.0152
2023-04-16T12:00:10.548Z,10.8606
2023-04-16T12:01:11.540Z,11.1461
2023-04-16T12:02:13.999Z,11.4020
2023-04-16T12:03:16.441Z,10.7318
2023-04-16T12:04:18.645Z,10.3764
2023-04-16T12:05:20.876Z,10.6032
2023-04-16T12:06:24.399Z,10.7112
2023-04-16T12:07:25.550Z,10.2309
2023-04-16T12:08:27.880Z,10.3697
2023-04-16T12:09:30.218Z,10.8398
2023-04-16T12:10:32.567Z,11.1171
2023-04-16T12:11:34.937Z,10.8478
2023-04-16T12:12:37.232Z,10.9456
2023-04-16T12:13:39.568Z,11.2806
2023-04-16T12:14:41.919Z,11.4719
2023-04-16T12:15:44.285Z,11.2352
2023-04-16T12:16:46.653Z,10.9912
2023-04-16T12:17:48.984Z,11.1385
2023-04-16T12:18:51.256Z,11.0665
2023-04-16T12:19:53.610Z,11.3702
2023-04-16T12:20:55.951Z,11.2283
2023-04-16T12:21:58.272Z,10.6856
2023-04-16T12:23:00.599Z,11.1182
2023-04-16T12:24:02.941Z,11.3336
2023-04-16T12:25:05.298Z,10.8476
2023-04-16T12:26:07.622Z,10.8616
2023-04-16T12:27:09.943Z,11.2585
2023-04-16T12:28:12.299Z,11.2092
2023-04-16T12:29:14.633Z,11.3096
2023-04-16T12:30:16.956Z,11.5169
2023-04-16T12:31:19.348Z,11.3739
2023-04-16T12:32:21.706Z,11.2352
2023-04-16T12:33:23.948Z,11.4649
2023-04-16T12:34:48.087Z,11.3497
2023-04-16T12:35:28.603Z,11.6164
2023-04-16T12:36:30.948Z,11.5245
2023-04-16T12:37:33.272Z,11.2767
2023-04-16T12:38:35.711Z,11.2683
2023-04-16T12:39:37.963Z,11.6263
2023-04-16T12:40:40.278Z,11.7449
2023-04-16T12:41:42.614Z,11.8720
2023-04-16T12:42:44.948Z,11.8720
2023-04-16T12:43:47.282Z,11.8987
2023-04-16T12:44:49.629Z,11.9675
2023-04-16T12:45:51.964Z,11.9174
2023-04-16T12:46:54.282Z,11.9519
2023-04-16T12:47:56.653Z,11.9946
2023-04-16T12:48:58.968Z,11.9203
2023-04-16T12:50:01.285Z,11.9073
2023-04-16T12:51:03.631Z,11.8451
2023-04-16T12:52:05.961Z,11.8467
2023-04-16T12:53:08.297Z,11.9151